Time;durP1;ratioP1;P1;durP2;ratioP2;P2;SDS_P1;SDS_P2;PMS_P1;PMS_P2;Temp;Humidity;BMP_temperature;BMP_pressure;BME280_temperature;BME280_humidity;BME280_pressure;Samples;Min_cycle;Max_cycle;Signal;HPM_P1;HPM_P2
2021/04/03 00:00:09;;;;;;;9.77;2.13;;;5.80;99.90;;;;;;5065479;28;20049;-72
2021/04/03 00:02:34;;;;;;;34.05;4.78;;;5.80;99.90;;;;;;5074392;28;20031;-72
2021/04/03 00:05:00;;;;;;;15.18;2.30;;;5.80;99.90;;;;;;5074272;28;20020;-72
2021/04/03 00:07:26;;;;;;;21.63;2.55;;;5.70;99.90;;;;;;5074291;28;20020;-72
2021/04/03 00:09:52;;;;;;;16.58;2.50;;;5.60;99.90;;;;;;5074868;28;20583;-72
2021/04/03 00:12:17;;;;;;;11.80;2.42;;;5.40;99.90;;;;;;5073367;28;20127;-72
2021/04/03 00:14:44;;;;;;;24.70;4.55;;;5.40;99.90;;;;;;5074450;28;20028;-72
2021/04/03 00:17:10;;;;;;;16.70;2.17;;;5.30;99.90;;;;;;5074125;28;20498;-72
2021/04/03 00:19:36;;;;;;;14.32;2.40;;;5.30;99.90;;;;;;5073247;28;20028;-72
2021/04/03 00:22:02;;;;;;;16.90;3.28;;;5.30;99.90;;;;;;5074299;28;20039;-72
2021/04/03 00:24:28;;;;;;;14.77;3.10;;;5.30;99.90;;;;;;5073821;28;20105;-71
2021/04/03 00:26:54;;;;;;;20.80;2.97;;;5.30;99.90;;;;;;5073441;28;20554;-72
2021/04/03 00:29:19;;;;;;;15.50;3.78;;;5.30;99.90;;;;;;5073241;28;20021;-73
2021/04/03 00:31:45;;;;;;;15.63;2.10;;;5.30;99.90;;;;;;5074539;28;20024;-72
2021/04/03 00:34:10;;;;;;;16.70;2.92;;;5.40;99.90;;;;;;5073522;28;20028;-73
2021/04/03 00:36:36;;;;;;;12.48;2.10;;;5.40;99.90;;;;;;5074421;28;20107;-71
2021/04/03 00:39:01;;;;;;;18.02;2.85;;;5.40;99.90;;;;;;5074566;28;20114;-71
2021/04/03 00:41:27;;;;;;;10.18;2.10;;;5.50;99.90;;;;;;5064850;28;20044;-72
2021/04/03 00:43:52;;;;;;;7.50;1.80;;;5.50;99.90;;;;;;5061496;28;20048;-72
2021/04/03 00:46:18;;;;;;;10.70;2.03;;;5.60;99.90;;;;;;5076828;28;20464;-72
2021/04/03 00:48:44;;;;;;;19.65;2.83;;;5.60;99.90;;;;;;5074757;28;20203;-72
2021/04/03 00:51:09;;;;;;;16.35;2.30;;;5.60;99.90;;;;;;5074311;28;20028;-71
2021/04/03 00:53:35;;;;;;;18.63;2.47;;;5.60;99.90;;;;;;5073815;28;20024;-72
2021/04/03 00:56:05;;;;;;;22.48;2.38;;;5.70;99.90;;;;;;5066879;28;20036;-71
2021/04/03 00:58:31;;;;;;;15.63;2.97;;;5.70;99.90;;;;;;5066555;28;20069;-71
2021/04/03 01:00:57;;;;;;;20.83;3.20;;;5.70;99.90;;;;;;5072997;28;20127;-71
2021/04/03 01:03:24;;;;;;;21.73;2.97;;;5.70;99.90;;;;;;5072502;28;20041;-71
2021/04/03 01:05:51;;;;;;;10.40;2.30;;;5.70;99.90;;;;;;5073299;28;20052;-71
2021/04/03 01:08:17;;;;;;;14.77;2.33;;;5.70;99.90;;;;;;5072388;28;20063;-71
2021/04/03 01:10:47;;;;;;;14.32;2.28;;;5.70;99.90;;;;;;5073033;28;20507;-72
2021/04/03 01:13:32;;;;;;;11.27;2.97;;;5.70;99.90;;;;;;5072759;28;20028;-72
2021/04/03 01:16:21;;;;;;;24.67;3.13;;;5.70;99.90;;;;;;5071935;28;20028;-72
2021/04/03 01:19:13;;;;;;;17.05;3.28;;;5.70;99.90;;;;;;5060661;28;20476;-72
2021/04/03 01:22:16;;;;;;;18.30;2.95;;;5.80;99.90;;;;;;5073437;28;20098;-72
2021/04/03 01:24:50;;;;;;;19.33;2.95;;;5.80;99.90;;;;;;5066363;28;20017;-72
2021/04/03 01:27:29;;;;;;;17.83;3.92;;;5.80;99.90;;;;;;5052933;28;20029;-72
2021/04/03 01:30:06;;;;;;;25.08;2.75;;;5.80;99.90;;;;;;5072348;28;20025;-73
2021/04/03 01:32:55;;;;;;;17.05;4.28;;;5.90;99.90;;;;;;5072635;28;20032;-72
2021/04/03 01:35:37;;;;;;;20.35;2.72;;;5.90;99.90;;;;;;5072929;28;20021;-73
2021/04/03 01:38:11;;;;;;;15.85;3.78;;;5.80;99.90;;;;;;5072203;28;20020;-72
2021/04/03 01:40:38;;;;;;;16.38;3.40;;;5.90;99.90;;;;;;5071958;28;20498;-72
2021/04/03 01:43:15;;;;;;;17.67;2.80;;;5.80;99.90;;;;;;5072794;28;20035;-72
2021/04/03 01:45:42;;;;;;;26.35;4.95;;;5.90;99.90;;;;;;5072604;28;20028;-71
2021/04/03 01:48:10;;;;;;;22.52;3.33;;;5.90;99.90;;;;;;5072554;28;20356;-72
2021/04/03 01:50:39;;;;;;;26.50;3.67;;;5.90;99.90;;;;;;5071804;28;20013;-73
2021/04/03 01:53:05;;;;;;;24.88;3.20;;;5.90;99.90;;;;;;5072128;28;20426;-73
2021/04/03 01:55:33;;;;;;;14.77;2.15;;;5.90;99.90;;;;;;5072569;28;20020;-73
2021/04/03 01:57:59;;;;;;;16.95;3.40;;;5.90;99.90;;;;;;5071946;28;20032;-71
2021/04/03 02:00:28;;;;;;;23.10;2.83;;;5.90;99.90;;;;;;5072254;28;20393;-72
2021/04/03 02:02:54;;;;;;;22.00;2.97;;;5.90;99.90;;;;;;5072299;28;20549;-71
2021/04/03 02:05:21;;;;;;;18.02;3.03;;;5.90;99.90;;;;;;5071124;28;20110;-72
2021/04/03 02:07:48;;;;;;;22.77;4.75;;;5.90;99.90;;;;;;5072278;28;20028;-71
2021/04/03 02:10:16;;;;;;;16.95;3.85;;;5.90;99.90;;;;;;5071938;28;20467;-72
2021/04/03 02:12:44;;;;;;;24.90;3.13;;;5.90;99.90;;;;;;5071810;28;20032;-72
2021/04/03 02:15:11;;;;;;;14.48;2.53;;;6.00;99.90;;;;;;5072291;28;20031;-71
2021/04/03 02:17:39;;;;;;;18.77;2.83;;;5.90;99.90;;;;;;5072203;28;20440;-71
2021/04/03 02:20:07;;;;;;;18.58;2.92;;;6.00;99.90;;;;;;5075204;28;20020;-72
2021/04/03 02:22:33;;;;;;;23.52;4.18;;;6.00;99.90;;;;;;5069288;28;20044;-72
2021/04/03 02:24:59;;;;;;;16.48;3.22;;;5.70;99.90;;;;;;5064465;28;20024;-72
2021/04/03 02:27:28;;;;;;;17.95;2.78;;;6.10;99.90;;;;;;5071133;28;20097;-71
2021/04/03 02:29:53;;;;;;;21.58;2.55;;;6.10;99.90;;;;;;5072154;28;20472;-72
2021/04/03 02:32:19;;;;;;;19.58;2.88;;;6.20;99.90;;;;;;5071414;28;20127;-71
2021/04/03 02:34:44;;;;;;;23.73;3.65;;;6.10;99.90;;;;;;5063646;28;20037;-71
2021/04/03 02:37:10;;;;;;;20.02;3.22;;;6.20;99.90;;;;;;5051670;28;20048;-72
2021/04/03 02:39:36;;;;;;;11.38;1.88;;;6.20;99.90;;;;;;5070953;28;20070;-71
2021/04/03 02:42:04;;;;;;;23.05;3.25;;;6.20;99.90;;;;;;5072079;28;20511;-72
2021/04/03 02:44:47;;;;;;;18.33;3.38;;;6.10;99.90;;;;;;5071665;28;20152;-72
2021/04/03 02:47:26;;;;;;;25.23;3.03;;;6.10;99.90;;;;;;5071103;28;20036;-71
2021/04/03 02:49:58;;;;;;;16.40;3.47;;;6.10;99.90;;;;;;5071798;28;20028;-72
2021/04/03 02:52:26;;;;;;;19.08;3.53;;;6.10;99.90;;;;;;5071201;28;20032;-71
2021/04/03 02:54:53;;;;;;;23.90;2.72;;;6.20;99.90;;;;;;5070815;28;20025;-72
2021/04/03 02:57:20;;;;;;;17.73;3.30;;;6.20;99.90;;;;;;5071385;28;20078;-72
2021/04/03 02:59:51;;;;;;;23.42;3.42;;;6.20;99.90;;;;;;5071176;28;20097;-72
2021/04/03 03:02:20;;;;;;;17.30;3.00;;;6.10;99.90;;;;;;5070728;28;20056;-71
2021/04/03 03:04:47;;;;;;;18.42;3.08;;;5.90;99.90;;;;;;5071485;28;20024;-71
2021/04/03 03:07:14;;;;;;;15.55;3.08;;;6.10;99.90;;;;;;5071298;28;20024;-71
2021/04/03 03:09:42;;;;;;;19.35;2.65;;;6.20;99.90;;;;;;5070906;28;20108;-72
2021/04/03 03:12:12;;;;;;;23.88;2.88;;;6.10;99.90;;;;;;5064648;28;20366;-71
2021/04/03 03:14:39;;;;;;;16.00;3.15;;;6.10;99.90;;;;;;5065329;28;20490;-72
2021/04/03 03:17:06;;;;;;;19.65;2.42;;;6.10;99.90;;;;;;5057353;28;20029;-71
2021/04/03 03:19:32;;;;;;;26.60;3.60;;;6.10;99.90;;;;;;5059014;28;20449;-71
2021/04/03 03:21:58;;;;;;;15.98;2.95;;;6.10;99.90;;;;;;5054832;28;20095;-72
2021/04/03 03:24:24;;;;;;;17.88;2.92;;;6.10;99.90;;;;;;5070819;28;20381;-73
2021/04/03 03:26:50;;;;;;;19.33;3.13;;;6.10;99.90;;;;;;5070995;28;20108;-71
2021/04/03 03:29:17;;;;;;;20.77;3.40;;;6.10;99.90;;;;;;5070434;28;20016;-73
2021/04/03 03:31:42;;;;;;;23.27;3.00;;;6.10;99.90;;;;;;5071382;28;20036;-72
2021/04/03 03:34:09;;;;;;;20.13;3.90;;;6.20;99.90;;;;;;5070736;28;20027;-72
2021/04/03 03:36:36;;;;;;;20.17;2.92;;;6.20;99.90;;;;;;5070193;28;20491;-72
2021/04/03 03:39:04;;;;;;;12.57;3.30;;;6.10;99.90;;;;;;5056960;28;20192;-71
2021/04/03 03:41:30;;;;;;;20.15;3.63;;;6.10;99.90;;;;;;5070975;28;20036;-72
2021/04/03 03:43:56;;;;;;;21.20;3.47;;;6.10;99.90;;;;;;5070622;28;20048;-72
2021/04/03 03:46:22;;;;;;;14.38;2.88;;;6.20;99.90;;;;;;5070685;28;20040;-72
2021/04/03 03:48:47;;;;;;;23.38;2.80;;;6.10;99.90;;;;;;5070769;28;20028;-72
2021/04/03 03:51:13;;;;;;;28.25;3.33;;;6.10;99.90;;;;;;5070117;28;20017;-72
2021/04/03 03:53:39;;;;;;;23.65;3.20;;;6.20;99.90;;;;;;5070877;28;20487;-70
2021/04/03 03:56:05;;;;;;;21.13;3.72;;;6.20;99.90;;;;;;5070496;28;20036;-72
2021/04/03 03:58:31;;;;;;;27.50;4.15;;;6.20;99.90;;;;;;5070542;28;20071;-72
2021/04/03 04:00:56;;;;;;;27.27;3.72;;;6.20;99.90;;;;;;5070402;28;20044;-72
2021/04/03 04:03:22;;;;;;;21.88;3.92;;;6.10;99.90;;;;;;5065090;28;20059;-72
2021/04/03 04:05:47;;;;;;;26.58;3.40;;;6.10;99.90;;;;;;5065113;28;20110;-73
2021/04/03 04:08:13;;;;;;;20.73;3.22;;;6.10;99.90;;;;;;5074087;28;20032;-73
2021/04/03 04:10:39;;;;;;;24.02;3.30;;;6.10;99.90;;;;;;5074585;28;20012;-71
2021/04/03 04:13:05;;;;;;;18.92;2.45;;;6.20;99.90;;;;;;5073667;28;20439;-72
2021/04/03 04:15:31;;;;;;;24.80;3.22;;;6.10;99.90;;;;;;5067083;28;20017;-72
2021/04/03 04:17:56;;;;;;;23.65;4.55;;;6.20;99.90;;;;;;5067931;28;20453;-72
2021/04/03 04:20:22;;;;;;;28.90;4.13;;;6.10;99.90;;;;;;5073108;28;20078;-72
2021/04/03 04:22:48;;;;;;;22.85;3.30;;;6.10;99.90;;;;;;5074222;28;20044;-73
2021/04/03 04:25:13;;;;;;;19.92;4.00;;;6.20;99.90;;;;;;5073250;28;20020;-71
2021/04/03 04:27:39;;;;;;;24.23;3.00;;;6.20;99.90;;;;;;5074191;28;20102;-71
2021/04/03 04:30:09;;;;;;;26.50;4.35;;;6.10;99.90;;;;;;5074019;28;20089;-72
2021/04/03 04:32:42;;;;;;;14.98;3.13;;;6.20;99.90;;;;;;5051613;28;20104;-72
2021/04/03 04:35:09;;;;;;;14.10;3.83;;;6.20;99.90;;;;;;5064822;28;20043;-72
2021/04/03 04:37:36;;;;;;;38.83;3.97;;;6.20;99.90;;;;;;5059658;28;20108;-72
2021/04/03 04:40:03;;;;;;;16.77;2.65;;;6.10;99.90;;;;;;5073371;28;20039;-72
2021/04/03 04:42:28;;;;;;;37.90;4.90;;;6.20;99.90;;;;;;5073595;28;20097;-72
2021/04/03 04:44:54;;;;;;;28.42;3.88;;;6.10;99.90;;;;;;5074168;28;20024;-70
2021/04/03 04:47:20;;;;;;;26.13;3.28;;;6.10;99.90;;;;;;5071969;28;20032;-71
2021/04/03 04:49:45;;;;;;;29.42;3.10;;;6.00;99.90;;;;;;5073418;28;20021;-71
2021/04/03 04:52:11;;;;;;;25.95;4.75;;;6.00;99.90;;;;;;5073167;28;20044;-72
2021/04/03 04:54:37;;;;;;;22.30;3.55;;;6.10;99.90;;;;;;5073088;28;20017;-72
2021/04/03 04:57:03;;;;;;;20.95;2.75;;;6.00;99.90;;;;;;5062458;28;20025;-72
2021/04/03 04:59:28;;;;;;;27.38;5.15;;;6.10;99.90;;;;;;5054861;28;20159;-73
2021/04/03 05:01:54;;;;;;;37.78;4.70;;;6.00;99.90;;;;;;5071169;28;20131;-73
2021/04/03 05:04:19;;;;;;;28.13;4.30;;;6.00;99.90;;;;;;5069116;28;20032;-72
2021/04/03 05:06:45;;;;;;;24.85;3.50;;;6.00;99.90;;;;;;5071605;28;20025;-71
2021/04/03 05:09:11;;;;;;;32.17;4.47;;;5.90;99.90;;;;;;5070371;28;20078;-72
2021/04/03 05:11:39;;;;;;;29.95;5.55;;;5.90;99.90;;;;;;5070304;28;20021;-72
2021/04/03 05:14:05;;;;;;;20.52;4.45;;;5.90;99.90;;;;;;5066112;28;20133;-72
2021/04/03 05:16:31;;;;;;;31.77;4.85;;;5.80;99.90;;;;;;5061790;28;20463;-71
2021/04/03 05:18:56;;;;;;;38.33;5.45;;;5.70;99.90;;;;;;5056608;28;20025;-71
2021/04/03 05:21:22;;;;;;;34.90;5.10;;;5.70;99.90;;;;;;5059771;28;20037;-74
2021/04/03 05:23:48;;;;;;;34.53;5.18;;;5.60;99.90;;;;;;5058354;28;20105;-71
2021/04/03 05:26:13;;;;;;;30.30;3.88;;;5.60;99.90;;;;;;5052823;28;20096;-71
2021/04/03 05:28:39;;;;;;;25.65;3.25;;;5.50;99.90;;;;;;5053030;28;20801;-72
2021/04/03 05:31:07;;;;;;;32.45;5.32;;;5.40;99.90;;;;;;5057180;28;20111;-72
2021/04/03 05:33:33;;;;;;;28.50;4.47;;;5.40;99.90;;;;;;5054433;28;20393;-71
2021/04/03 05:35:58;;;;;;;34.45;4.18;;;5.40;99.90;;;;;;5059577;28;20095;-71
2021/04/03 05:38:24;;;;;;;30.65;4.15;;;5.90;99.90;;;;;;5056723;28;20468;-72
2021/04/03 05:40:49;;;;;;;33.83;4.93;;;5.40;99.90;;;;;;5059587;28;20031;-71
2021/04/03 05:43:18;;;;;;;30.02;4.10;;;5.30;99.90;;;;;;5056857;28;20021;-72
2021/04/03 05:45:45;;;;;;;37.30;3.90;;;5.30;99.90;;;;;;5055817;28;20109;-73
2021/04/03 05:48:12;;;;;;;28.48;5.43;;;5.30;99.90;;;;;;5068520;28;20066;-72
2021/04/03 05:50:38;;;;;;;25.35;4.15;;;5.30;99.90;;;;;;5057662;28;20070;-73
2021/04/03 05:53:04;;;;;;;23.58;4.63;;;5.30;99.90;;;;;;5068827;28;20037;-71
2021/04/03 05:55:29;;;;;;;36.17;5.72;;;5.20;99.90;;;;;;5066677;28;20492;-72
2021/04/03 05:57:55;;;;;;;32.75;4.80;;;5.20;99.90;;;;;;5068576;28;20028;-72
2021/04/03 06:00:21;;;;;;;24.65;4.80;;;5.30;99.90;;;;;;5071664;28;20032;-72
2021/04/03 06:02:47;;;;;;;35.13;3.90;;;5.20;99.90;;;;;;5071634;28;20028;-72
2021/04/03 06:05:12;;;;;;;37.78;7.65;;;5.20;99.90;;;;;;5066982;28;20444;-72
2021/04/03 06:07:40;;;;;;;19.50;3.15;;;5.30;99.90;;;;;;5072718;28;20032;-73
2021/04/03 06:10:07;;;;;;;22.85;3.55;;;5.30;99.90;;;;;;5072328;28;20103;-73
2021/04/03 06:12:41;;;;;;;30.10;4.03;;;5.30;99.90;;;;;;5062788;28;20516;-73
2021/04/03 06:15:13;;;;;;;37.05;5.47;;;5.30;99.90;;;;;;5073427;28;20025;-72
2021/04/03 06:17:39;;;;;;;20.90;4.50;;;5.40;99.90;;;;;;5063617;28;20028;-73
2021/04/03 06:20:05;;;;;;;36.63;5.85;;;5.30;99.90;;;;;;5072479;28;20020;-72
2021/04/03 06:22:44;;;;;;;29.95;5.13;;;5.30;99.90;;;;;;5073072;28;20112;-73
2021/04/03 06:25:11;;;;;;;33.30;5.18;;;5.40;99.90;;;;;;5072023;28;20024;-71
2021/04/03 06:27:37;;;;;;;33.67;6.43;;;5.40;99.90;;;;;;5071303;28;20025;-72
2021/04/03 06:30:14;;;;;;;38.08;4.53;;;5.40;99.90;;;;;;5072148;28;20028;-72
2021/04/03 06:32:40;;;;;;;35.40;4.80;;;5.50;99.90;;;;;;5071261;28;20024;-72
2021/04/03 06:35:06;;;;;;;43.90;5.47;;;5.40;99.90;;;;;;5071595;28;20024;-72
2021/04/03 06:37:35;;;;;;;49.67;5.20;;;5.50;99.90;;;;;;5071691;28;20025;-72
2021/04/03 06:40:05;;;;;;;37.55;5.93;;;5.50;99.90;;;;;;5071186;28;20044;-72
2021/04/03 06:42:39;;;;;;;40.30;4.45;;;5.60;99.90;;;;;;5063209;28;20037;-72
2021/04/03 06:45:35;;;;;;;44.65;5.00;;;5.60;99.90;;;;;;5057640;28;20033;-73
2021/04/03 06:48:01;;;;;;;24.08;3.53;;;5.70;99.90;;;;;;5059025;28;21156;-72
2021/04/03 06:50:29;;;;;;;31.42;5.47;;;5.80;99.90;;;;;;5062793;28;20037;-73
2021/04/03 06:52:55;;;;;;;23.27;4.07;;;5.80;99.90;;;;;;5071410;28;20031;-73
2021/04/03 06:55:23;;;;;;;44.08;5.00;;;5.90;99.90;;;;;;5064289;28;20024;-72
2021/04/03 06:57:49;;;;;;;35.05;5.03;;;5.90;99.90;;;;;;5058314;28;20096;-73
2021/04/03 07:00:17;;;;;;;31.45;6.57;;;6.00;99.90;;;;;;5060937;28;20083;-73
2021/04/03 07:03:00;;;;;;;35.20;6.88;;;6.00;99.90;;;;;;5056707;28;20384;-72
2021/04/03 07:05:32;;;;;;;34.35;5.53;;;6.10;99.90;;;;;;5058317;28;20025;-72
2021/04/03 07:08:10;;;;;;;36.13;4.70;;;6.20;99.90;;;;;;5065971;28;20028;-77
2021/04/03 07:10:38;;;;;;;41.38;6.97;;;6.20;99.90;;;;;;5072627;28;20024;-78
2021/04/03 07:13:06;;;;;;;38.95;6.05;;;6.30;99.90;;;;;;5073873;28;20032;-80
2021/04/03 07:15:35;;;;;;;37.03;5.95;;;6.40;99.90;;;;;;5073398;28;20072;-79
2021/04/03 07:18:08;;;;;;;34.25;4.43;;;6.40;99.90;;;;;;5066988;28;20021;-80
2021/04/03 07:20:35;;;;;;;39.75;6.03;;;6.40;99.90;;;;;;5063660;28;20028;-78
2021/04/03 07:23:06;;;;;;;30.50;4.82;;;6.50;99.90;;;;;;5066565;28;20056;-80
2021/04/03 07:25:35;;;;;;;;;;;6.50;99.90;;;;;;5062927;28;20123;-79
2021/04/03 07:28:01;;;;;;;30.85;3.50;;;6.60;99.90;;;;;;5066256;28;19904;-79
2021/04/03 07:30:38;;;;;;;29.02;6.18;;;6.60;99.90;;;;;;5066638;28;20062;-79
2021/04/03 07:33:21;;;;;;;32.22;4.72;;;6.70;99.90;;;;;;5057284;28;20044;-79
2021/04/03 07:35:51;;;;;;;25.85;5.15;;;6.80;99.90;;;;;;5059203;28;20025;-78
2021/04/03 07:38:44;;;;;;;28.08;3.85;;;6.80;99.90;;;;;;5087830;28;20020;-78
2021/04/03 07:41:12;;;;;;;33.00;4.45;;;6.90;99.90;;;;;;5064854;28;20040;-78
2021/04/03 07:43:47;;;;;;;23.58;4.22;;;6.90;99.90;;;;;;5075700;28;20020;-78
2021/04/03 07:46:23;;;;;;;19.70;3.75;;;7.00;99.90;;;;;;5075321;28;20020;-78
2021/04/03 07:48:59;;;;;;;33.65;4.35;;;7.00;99.90;;;;;;5076116;28;20028;-78
2021/04/03 07:51:24;;;;;;;20.67;4.03;;;7.10;99.90;;;;;;5074401;28;20024;-78
2021/04/03 07:53:52;;;;;;;22.73;3.78;;;7.20;99.90;;;;;;5075204;28;20751;-79
2021/04/03 07:56:23;;;;;;;27.48;4.18;;;7.30;99.90;;;;;;5074307;28;20534;-78
2021/04/03 07:58:53;;;;;;;31.33;4.47;;;7.40;99.90;;;;;;5074951;28;20087;-78
2021/04/03 08:01:20;;;;;;;21.92;4.10;;;7.50;99.90;;;;;;5075317;28;20098;-78
2021/04/03 08:03:52;;;;;;;35.15;4.57;;;7.60;99.90;;;;;;5073712;28;20025;-78
2021/04/03 08:06:30;;;;;;;24.15;3.70;;;7.80;99.90;;;;;;5074954;28;20031;-78
2021/04/03 08:08:56;;;;;;;25.90;5.78;;;7.90;99.90;;;;;;5075496;28;20032;-78
2021/04/03 08:11:22;;;;;;;21.75;4.78;;;7.90;99.90;;;;;;5074005;28;20086;-80
2021/04/03 08:13:50;;;;;;;24.73;4.05;;;7.90;99.90;;;;;;5073814;28;20538;-76
2021/04/03 08:16:17;;;;;;;31.73;4.32;;;7.90;99.90;;;;;;5065262;28;20112;-76
2021/04/03 08:18:45;;;;;;;23.50;3.90;;;8.00;99.90;;;;;;5071596;28;20032;-75
2021/04/03 08:21:11;;;;;;;33.30;4.70;;;8.00;99.90;;;;;;5074047;28;20080;-75
2021/04/03 08:23:50;;;;;;;26.98;4.05;;;8.00;99.90;;;;;;5074316;28;20073;-75
2021/04/03 08:26:25;;;;;;;34.60;4.13;;;8.10;99.90;;;;;;5073886;28;20452;-76
2021/04/03 08:28:50;;;;;;;30.20;3.35;;;8.20;99.90;;;;;;5060590;28;20074;-76
2021/04/03 08:31:22;;;;;;;24.00;3.65;;;8.30;99.90;;;;;;5073712;28;20414;-77
2021/04/03 08:33:51;;;;;;;23.95;3.58;;;8.20;99.90;;;;;;5060481;28;20040;-78
2021/04/03 08:36:19;;;;;;;34.17;4.68;;;8.30;99.90;;;;;;5073516;28;20067;-76
2021/04/03 08:38:45;;;;;;;16.92;4.00;;;8.30;99.90;;;;;;5073657;28;20040;-76
2021/04/03 08:41:19;;;;;;;40.13;8.00;;;8.40;99.90;;;;;;5058925;28;20366;-77
2021/04/03 08:43:46;;;;;;;22.52;3.20;;;8.30;99.90;;;;;;5056811;28;20017;-77
2021/04/03 08:46:14;;;;;;;20.73;3.75;;;8.50;99.90;;;;;;5059998;28;20036;-76
2021/04/03 08:48:42;;;;;;;20.02;4.35;;;8.50;99.90;;;;;;5057028;28;20092;-77
2021/04/03 08:51:12;;;;;;;24.38;4.25;;;8.50;99.90;;;;;;5054877;28;20024;-83
2021/04/03 08:53:43;;;;;;;19.40;4.35;;;9.00;99.90;;;;;;5066852;28;20020;-79
2021/04/03 08:56:15;;;;;;;24.15;3.28;;;8.50;99.90;;;;;;5060583;28;20149;-79
2021/04/03 08:58:41;;;;;;;20.67;4.05;;;8.50;99.90;;;;;;5063715;28;20036;-78
2021/04/03 09:01:07;;;;;;;24.58;3.80;;;8.40;99.90;;;;;;5066861;28;20091;-77
2021/04/03 09:03:34;;;;;;;33.90;5.47;;;8.50;99.90;;;;;;5068320;28;20031;-78
2021/04/03 09:06:03;;;;;;;21.05;4.20;;;8.50;99.90;;;;;;5062894;28;20383;-77
2021/04/03 09:08:29;;;;;;;27.42;4.78;;;8.50;99.90;;;;;;5065882;28;20100;-77
2021/04/03 09:11:13;;;;;;;20.23;4.25;;;8.60;99.90;;;;;;5063493;28;20555;-78
2021/04/03 09:13:39;;;;;;;26.92;4.60;;;8.60;99.90;;;;;;5061537;28;20060;-79
2021/04/03 09:16:13;;;;;;;33.15;3.95;;;8.70;99.90;;;;;;5056929;28;20411;-77
2021/04/03 09:18:40;;;;;;;19.35;3.67;;;8.80;99.90;;;;;;5075481;28;20091;-78
2021/04/03 09:21:06;;;;;;;37.30;5.30;;;8.70;99.90;;;;;;5074270;28;20025;-77
2021/04/03 09:23:40;;;;;;;27.58;4.05;;;8.80;99.90;;;;;;5076697;28;20112;-79
2021/04/03 09:26:06;;;;;;;20.58;4.10;;;8.70;99.90;;;;;;5078311;28;20017;-80
2021/04/03 09:28:36;;;;;;;26.42;3.42;;;8.90;99.90;;;;;;5070041;28;20035;-79
2021/04/03 09:31:02;;;;;;;28.10;5.20;;;9.00;99.90;;;;;;5070128;28;20021;-78
2021/04/03 09:33:29;;;;;;;29.92;3.80;;;9.10;99.90;;;;;;5061069;28;20071;-77
2021/04/03 09:36:09;;;;;;;25.38;4.38;;;9.30;99.90;;;;;;5072515;28;20062;-77
2021/04/03 09:38:37;;;;;;;21.95;3.22;;;9.30;99.90;;;;;;5073670;28;20016;-76
2021/04/03 09:41:19;;;;;;;21.92;4.45;;;9.40;99.90;;;;;;5064898;28;20137;-79
2021/04/03 09:43:44;;;;;;;17.33;3.60;;;9.70;99.90;;;;;;5052562;28;20021;-77
2021/04/03 09:46:10;;;;;;;29.45;3.90;;;9.80;99.90;;;;;;5062578;28;20051;-78
2021/04/03 09:48:36;;;;;;;16.40;4.05;;;9.70;99.90;;;;;;5072135;28;20039;-77
2021/04/03 09:51:06;;;;;;;24.67;3.90;;;9.70;99.90;;;;;;5073346;28;20036;-77
2021/04/03 09:53:32;;;;;;;25.23;3.67;;;9.70;99.90;;;;;;5073016;28;20025;-76
2021/04/03 09:55:57;;;;;;;17.88;3.50;;;9.70;99.90;;;;;;5075973;28;20043;-76
2021/04/03 09:58:23;;;;;;;20.95;4.35;;;9.80;99.90;;;;;;5086098;28;20876;-77
2021/04/03 10:00:49;;;;;;;21.15;3.65;;;9.80;99.90;;;;;;5084043;28;20106;-76
2021/04/03 10:03:14;;;;;;;20.73;3.63;;;10.00;99.90;;;;;;5071065;28;20019;-77
2021/04/03 10:05:40;;;;;;;20.25;4.43;;;9.90;99.90;;;;;;5064430;28;20495;-78
2021/04/03 10:08:05;;;;;;;27.30;4.07;;;9.80;99.90;;;;;;5063990;28;20028;-78
2021/04/03 10:10:32;;;;;;;17.85;3.50;;;9.80;99.90;;;;;;5059180;28;21636;-78
2021/04/03 10:12:57;;;;;;;16.25;2.88;;;9.90;99.90;;;;;;5073041;28;20376;-79
2021/04/03 10:15:23;;;;;;;17.33;4.20;;;9.90;99.90;;;;;;5071543;28;20024;-77
2021/04/03 10:17:48;;;;;;;24.17;3.92;;;9.80;99.90;;;;;;5071904;28;20469;-77
2021/04/03 10:20:15;;;;;;;12.18;3.33;;;9.80;99.90;;;;;;5071867;28;20045;-78
2021/04/03 10:22:40;;;;;;;20.58;3.65;;;9.90;99.90;;;;;;5074064;28;20107;-78
2021/04/03 10:25:07;;;;;;;24.50;3.95;;;9.90;99.90;;;;;;5070372;28;20036;-77
2021/04/03 10:27:32;;;;;;;20.20;3.67;;;10.00;99.90;;;;;;5061747;28;20029;-76
2021/04/03 10:29:58;;;;;;;23.15;4.68;;;10.00;99.90;;;;;;5071301;28;20537;-76
2021/04/03 10:32:24;;;;;;;21.65;3.55;;;10.00;99.90;;;;;;5071724;28;20029;-76
2021/04/03 10:34:49;;;;;;;19.55;3.47;;;10.20;99.90;;;;;;5070449;28;20017;-77
2021/04/03 10:37:15;;;;;;;28.58;4.30;;;10.30;99.90;;;;;;5069566;28;20020;-78
2021/04/03 10:39:40;;;;;;;26.02;3.75;;;10.60;99.90;;;;;;5071566;28;20125;-78
2021/04/03 10:42:07;;;;;;;23.85;3.70;;;10.80;99.90;;;;;;5071595;28;20031;-77
2021/04/03 10:44:33;;;;;;;20.08;4.20;;;11.00;99.90;;;;;;5071648;28;20039;-77
2021/04/03 10:46:58;;;;;;;20.80;4.95;;;11.10;99.90;;;;;;5067929;28;20029;-77
2021/04/03 10:49:24;;;;;;;25.65;5.10;;;11.20;99.90;;;;;;5065954;28;20387;-77
2021/04/03 10:51:49;;;;;;;22.33;4.45;;;11.00;99.90;;;;;;5057869;28;20040;-77
2021/04/03 10:54:19;;;;;;;18.80;3.30;;;11.20;99.90;;;;;;5060625;28;20112;-76
2021/04/03 10:56:45;;;;;;;20.50;3.63;;;11.10;99.90;;;;;;5057368;28;20029;-77
2021/04/03 10:59:11;;;;;;;30.67;3.80;;;11.20;99.90;;;;;;5051534;28;20017;-77
2021/04/03 11:01:37;;;;;;;23.48;4.70;;;11.20;99.90;;;;;;5061107;28;20111;-77
2021/04/03 11:04:03;;;;;;;19.85;3.78;;;11.10;99.90;;;;;;5066006;28;20105;-77
2021/04/03 11:06:29;;;;;;;27.23;4.10;;;11.00;99.90;;;;;;5064247;28;20029;-76
2021/04/03 11:08:54;;;;;;;20.55;4.45;;;10.90;99.90;;;;;;5065379;28;20027;-77
2021/04/03 11:11:20;;;;;;;23.33;3.78;;;10.90;99.90;;;;;;5069357;28;20092;-77
2021/04/03 11:13:45;;;;;;;23.90;4.78;;;10.80;99.90;;;;;;5063369;28;20441;-77
2021/04/03 11:16:11;;;;;;;19.05;4.30;;;10.80;99.90;;;;;;5057964;28;20017;-77
2021/04/03 11:18:36;;;;;;;21.25;4.22;;;10.80;99.90;;;;;;5073921;28;20046;-77
2021/04/03 11:21:03;;;;;;;15.40;3.97;;;10.80;99.90;;;;;;5072324;28;20112;-76
2021/04/03 11:23:28;;;;;;;16.30;4.40;;;10.80;99.80;;;;;;5073655;28;20024;-77
2021/04/03 11:25:54;;;;;;;16.20;3.10;;;10.70;99.90;;;;;;5071254;28;20139;-78
2021/04/03 11:28:20;;;;;;;21.58;3.88;;;10.60;99.90;;;;;;5065735;28;20484;-77
2021/04/03 11:30:45;;;;;;;24.45;3.50;;;10.50;99.90;;;;;;5074840;28;20046;-77
2021/04/03 11:33:11;;;;;;;24.50;3.58;;;10.40;99.90;;;;;;5073491;28;20480;-77
2021/04/03 11:35:37;;;;;;;22.65;3.35;;;10.40;99.90;;;;;;5072152;28;20464;-77
2021/04/03 11:38:03;;;;;;;19.08;4.07;;;10.60;99.90;;;;;;5068648;28;20082;-76
2021/04/03 11:40:29;;;;;;;28.02;4.55;;;10.80;99.90;;;;;;5069308;28;20020;-76
2021/04/03 11:42:56;;;;;;;19.25;3.83;;;11.00;99.90;;;;;;5071221;28;20028;-77
2021/04/03 11:45:23;;;;;;;16.95;4.15;;;11.00;99.90;;;;;;5064309;28;20504;-76
2021/04/03 11:47:49;;;;;;;16.38;3.45;;;10.90;99.40;;;;;;5059253;28;20071;-76
2021/04/03 11:50:16;;;;;;;20.45;4.13;;;10.80;99.60;;;;;;5065839;28;20028;-76
2021/04/03 11:52:41;;;;;;;20.73;3.85;;;10.80;99.90;;;;;;5063939;28;20384;-77
2021/04/03 11:55:08;;;;;;;16.27;3.63;;;11.00;99.90;;;;;;5070490;28;20029;-77
2021/04/03 11:57:35;;;;;;;12.82;3.92;;;11.20;99.20;;;;;;5069287;28;20097;-78
2021/04/03 12:00:03;;;;;;;16.58;3.35;;;11.40;98.70;;;;;;5061294;28;20110;-78
2021/04/03 12:02:28;;;;;;;22.42;3.80;;;11.60;98.30;;;;;;5064161;28;20124;-78
2021/04/03 12:04:55;;;;;;;19.00;3.55;;;11.70;96.90;;;;;;5054277;28;20107;-77
2021/04/03 12:07:20;;;;;;;19.55;4.32;;;11.60;97.20;;;;;;5057026;28;20029;-77
2021/04/03 12:09:46;;;;;;;17.98;5.30;;;11.70;97.80;;;;;;5057159;28;20424;-77
2021/04/03 12:12:11;;;;;;;21.83;4.50;;;11.70;98.00;;;;;;5055173;28;20761;-77
2021/04/03 12:14:37;;;;;;;16.33;4.15;;;11.80;97.40;;;;;;5057678;28;20018;-78
2021/04/03 12:17:03;;;;;;;19.30;3.97;;;11.70;97.70;;;;;;5058349;28;20476;-78
2021/04/03 12:19:28;;;;;;;18.23;3.97;;;11.70;97.70;;;;;;5054048;28;20039;-78
2021/04/03 12:21:54;;;;;;;17.45;3.75;;;11.60;99.10;;;;;;5052179;28;20086;-79
2021/04/03 12:24:19;;;;;;;17.83;4.15;;;11.60;96.50;;;;;;5055038;28;20063;-78
2021/04/03 12:26:45;;;;;;;11.65;3.05;;;11.40;97.90;;;;;;5062138;28;20021;-78
2021/04/03 12:29:13;;;;;;;21.55;4.00;;;11.40;97.40;;;;;;5056336;28;20025;-79
2021/04/03 12:31:39;;;;;;;20.35;4.35;;;11.50;98.00;;;;;;5058703;28;20036;-79
2021/04/03 12:34:05;;;;;;;13.93;4.07;;;11.50;98.00;;;;;;5054763;28;20017;-80
2021/04/03 12:36:30;;;;;;;22.25;4.45;;;11.60;98.70;;;;;;5065818;28;20176;-77
2021/04/03 12:38:56;;;;;;;22.05;3.75;;;11.60;98.90;;;;;;5064484;28;20059;-78
2021/04/03 12:41:22;;;;;;;20.00;4.85;;;11.60;99.60;;;;;;5059656;28;20028;-77
2021/04/03 12:43:48;;;;;;;14.55;3.67;;;11.40;99.30;;;;;;5069078;28;20025;-77
2021/04/03 12:46:13;;;;;;;24.05;4.07;;;11.30;99.10;;;;;;5063030;28;20064;-79
2021/04/03 12:48:39;;;;;;;16.08;3.55;;;11.40;99.90;;;;;;5063626;28;20023;-78